Time;durP1;ratioP1;P1;durP2;ratioP2;P2;SDS_P1;SDS_P2;PMS_P1;PMS_P2;Temp;Humidity;BMP_temperature;BMP_pressure;BME280_temperature;BME280_humidity;BME280_pressure;Samples;Min_cycle;Max_cycle;Signal;HPM_P1;HPM_P2
2022/09/20 00:00:26;;;;;;;4.80;2.00;;;;;;;7.09;100.00;95896.34;5038670;28;20076;-75
2022/09/20 00:03:13;;;;;;;6.78;2.15;;;;;;;7.11;100.00;95896.94;5028643;28;20116;-76
2022/09/20 00:05:41;;;;;;;4.53;2.22;;;;;;;7.06;100.00;95899.44;5027862;28;20045;-75
2022/09/20 00:08:11;;;;;;;3.80;2.13;;;;;;;7.07;100.00;95903.66;5027936;28;20104;-75
2022/09/20 00:10:38;;;;;;;8.00;2.45;;;;;;;7.02;100.00;95893.09;5040389;28;20064;-76
2022/09/20 00:13:05;;;;;;;5.05;1.90;;;;;;;7.10;100.00;95897.16;5040359;28;20048;-75
2022/09/20 00:15:31;;;;;;;5.85;1.90;;;;;;;7.09;100.00;95888.50;5045372;28;20641;-75
2022/09/20 00:17:57;;;;;;;7.28;2.30;;;;;;;7.09;100.00;95887.72;5050558;28;20051;-75
2022/09/20 00:20:23;;;;;;;8.73;2.40;;;;;;;7.13;100.00;95893.28;5041101;28;20468;-75
2022/09/20 00:22:49;;;;;;;6.53;2.30;;;;;;;7.08;100.00;95892.16;5040694;28;20041;-74
2022/09/20 00:25:19;;;;;;;7.15;2.20;;;;;;;7.15;100.00;95885.97;5044192;28;20556;-76
2022/09/20 00:27:45;;;;;;;4.53;2.75;;;;;;;7.07;100.00;95877.50;5036850;28;20038;-75
2022/09/20 00:30:12;;;;;;;9.40;2.75;;;;;;;7.13;100.00;95878.38;5045643;28;20044;-76
2022/09/20 00:32:38;;;;;;;4.10;2.00;;;;;;;7.07;100.00;95884.56;5032049;28;20038;-75
2022/09/20 00:35:07;;;;;;;7.45;2.60;;;;;;;7.06;100.00;95883.75;5041568;28;20541;-75
2022/09/20 00:37:42;;;;;;;6.47;2.40;;;;;;;7.14;100.00;95879.16;5045988;28;20120;-76
2022/09/20 00:40:19;;;;;;;10.20;2.03;;;;;;;7.13;100.00;95877.59;5049096;28;20048;-75
2022/09/20 00:42:45;;;;;;;6.60;2.50;;;;;;;7.13;100.00;95873.13;5045350;28;20044;-76
2022/09/20 00:45:11;;;;;;;5.03;2.40;;;;;;;7.12;100.00;95871.53;5035093;28;20388;-75
2022/09/20 00:48:09;;;;;;;6.28;3.00;;;;;;;7.10;100.00;95874.38;5040968;28;20049;-75
2022/09/20 00:50:58;;;;;;;4.30;2.30;;;;;;;7.18;100.00;95880.25;5049156;28;21146;-75
2022/09/20 00:53:38;;;;;;;8.90;2.67;;;;;;;7.15;100.00;95875.50;5041987;28;20077;-75
2022/09/20 00:56:20;;;;;;;5.35;2.40;;;;;;;7.09;100.00;95880.66;5046138;28;20074;-75
2022/09/20 00:58:55;;;;;;;7.85;2.47;;;;;;;7.07;100.00;95869.63;5048225;28;20041;-75
2022/09/20 01:01:21;;;;;;;3.50;2.10;;;;;;;7.19;100.00;95881.84;5031791;28;20046;-76
2022/09/20 01:03:47;;;;;;;10.43;2.58;;;;;;;7.14;100.00;95879.16;5043146;28;20106;-74
2022/09/20 01:06:15;;;;;;;6.47;2.60;;;;;;;7.09;100.00;95888.50;5034101;28;20049;-75
2022/09/20 01:08:44;;;;;;;5.88;2.13;;;;;;;7.13;100.00;95888.06;5050747;28;20037;-76
2022/09/20 01:11:10;;;;;;;5.78;2.20;;;;;;;7.11;100.00;95885.66;5039558;28;20072;-75
2022/09/20 01:13:35;;;;;;;5.97;2.35;;;;;;;7.17;100.00;95884.72;5044873;28;20068;-76
2022/09/20 01:16:03;;;;;;;9.65;3.00;;;;;;;7.32;100.00;95884.16;5049993;28;20045;-76
2022/09/20 01:18:30;;;;;;;4.68;2.40;;;;;;;7.33;100.00;95877.88;5046868;28;20086;-75
2022/09/20 01:20:58;;;;;;;5.65;2.35;;;;;;;7.35;100.00;95881.03;5045057;28;20050;-75
2022/09/20 01:23:47;;;;;;;11.20;2.40;;;;;;;7.38;100.00;95882.41;5031553;28;20512;-76
2022/09/20 01:26:21;;;;;;;4.00;2.10;;;;;;;7.48;100.00;95879.13;5029970;28;20072;-75
2022/09/20 01:28:51;;;;;;;8.63;2.33;;;;;;;7.43;100.00;95878.03;5032550;28;20107;-76
2022/09/20 01:31:32;;;;;;;6.15;2.33;;;;;;;7.39;100.00;95871.69;5046518;28;20090;-76
2022/09/20 01:34:01;;;;;;;9.45;2.60;;;;;;;7.42;100.00;95881.66;5037313;28;20045;-76
2022/09/20 01:36:36;;;;;;;6.13;2.28;;;;;;;7.41;100.00;95877.50;5048961;28;20041;-75
2022/09/20 01:39:38;;;;;;;7.50;2.20;;;;;;;7.42;100.00;95871.19;5042455;28;20040;-76
2022/09/20 01:42:08;;;;;;;5.72;2.40;;;;;;;7.45;100.00;95865.47;5038040;28;20073;-76
2022/09/20 01:44:42;;;;;;;3.65;1.83;;;;;;;7.34;100.00;95853.28;5037992;28;20696;-76
2022/09/20 01:47:18;;;;;;;7.50;2.25;;;;;;;7.27;100.00;95857.91;5036338;28;20041;-76
2022/09/20 01:50:02;;;;;;;6.78;2.17;;;;;;;7.27;100.00;95863.94;5029312;28;20041;-76
2022/09/20 01:52:33;;;;;;;8.15;2.30;;;;;;;7.21;100.00;95858.84;5043265;28;20049;-76
2022/09/20 01:55:34;;;;;;;3.88;1.98;;;;;;;7.20;100.00;95854.66;5040900;28;20041;-75
2022/09/20 01:58:37;;;;;;;5.40;2.70;;;;;;;7.20;100.00;95852.03;5019819;28;20054;-77
2022/09/20 02:01:40;;;;;;;4.35;1.92;;;;;;;7.22;100.00;95857.81;5049082;28;20041;-76
2022/09/20 02:04:50;;;;;;;5.55;2.28;;;;;;;7.17;100.00;95855.13;5041501;28;20654;-75
2022/09/20 02:07:28;;;;;;;5.90;2.00;;;;;;;7.13;100.00;95851.41;5019610;28;20061;-76
2022/09/20 02:10:37;;;;;;;4.45;1.92;;;;;;;7.09;100.00;95841.38;5031582;28;20049;-75
2022/09/20 02:13:22;;;;;;;3.80;1.80;;;;;;;7.09;100.00;95845.84;5032005;28;20549;-76
2022/09/20 02:16:03;;;;;;;5.13;2.08;;;;;;;7.06;100.00;95836.63;5046540;28;20051;-75
2022/09/20 02:19:06;;;;;;;4.90;2.13;;;;;;;7.03;100.00;95842.34;5038512;28;20172;-75
2022/09/20 02:22:03;;;;;;;2.63;1.58;;;;;;;7.01;100.00;95844.44;5031342;28;20045;-75
2022/09/20 02:24:49;;;;;;;4.22;2.15;;;;;;;6.94;100.00;95846.41;5042078;28;20044;-75
2022/09/20 02:27:39;;;;;;;6.07;2.17;;;;;;;6.91;100.00;95849.47;5045524;28;20053;-75
2022/09/20 02:30:25;;;;;;;4.15;2.00;;;;;;;6.83;100.00;95836.81;5038705;28;20053;-75
2022/09/20 02:33:18;;;;;;;3.25;1.95;;;;;;;6.88;100.00;95844.72;5047672;28;20502;-76
2022/09/20 02:35:56;;;;;;;5.85;2.05;;;;;;;6.86;100.00;95841.56;5038767;28;20056;-75
2022/09/20 02:38:49;;;;;;;4.65;2.20;;;;;;;6.79;100.00;95851.38;5044657;28;20049;-74
2022/09/20 02:41:26;;;;;;;6.32;2.00;;;;;;;6.80;100.00;95852.97;5035075;28;20042;-75
2022/09/20 02:44:04;;;;;;;4.05;1.77;;;;;;;6.83;100.00;95852.50;5037424;28;20514;-75
2022/09/20 02:47:08;;;;;;;3.63;2.05;;;;;;;6.83;100.00;95849.88;5030068;28;20517;-75
2022/09/20 02:50:09;;;;;;;4.37;2.10;;;;;;;6.90;100.00;95850.53;5011152;28;20057;-75
2022/09/20 02:52:37;;;;;;;2.88;1.85;;;;;;;6.81;100.00;95854.53;5002857;28;20515;-76
2022/09/20 02:55:15;;;;;;;3.97;1.92;;;;;;;6.93;100.00;95858.69;5040315;28;20735;-75
2022/09/20 02:57:43;;;;;;;6.00;2.00;;;;;;;6.93;100.00;95860.50;5045823;28;20045;-74
2022/09/20 03:00:16;;;;;;;4.10;2.03;;;;;;;6.87;100.00;95864.09;5035728;28;20041;-75
2022/09/20 03:03:05;;;;;;;4.68;2.20;;;;;;;6.86;100.00;95857.25;5035435;28;20045;-75
2022/09/20 03:05:31;;;;;;;4.30;2.20;;;;;;;6.86;100.00;95867.72;5046642;28;20045;-73
2022/09/20 03:08:17;;;;;;;16.77;2.65;;;;;;;6.87;100.00;95859.63;5042435;28;20041;-75
2022/09/20 03:11:20;;;;;;;2.70;1.90;;;;;;;6.85;100.00;95861.72;5029356;28;20033;-75
2022/09/20 03:14:12;;;;;;;3.88;2.08;;;;;;;6.81;100.00;95854.53;5030730;28;20053;-75
2022/09/20 03:16:50;;;;;;;4.47;1.98;;;;;;;6.88;100.00;95855.19;5034686;28;20084;-75
2022/09/20 03:19:33;;;;;;;4.68;2.00;;;;;;;6.83;100.00;95852.50;5036841;28;20511;-75
2022/09/20 03:22:38;;;;;;;4.65;2.30;;;;;;;6.80;100.00;95858.22;5030839;28;20046;-76
2022/09/20 03:25:15;;;;;;;14.75;3.03;;;;;;;6.81;100.00;95860.59;5010444;28;20057;-75
2022/09/20 03:27:53;;;;;;;8.73;2.25;;;;;;;6.78;100.00;95855.03;5047801;28;20058;-75
2022/09/20 03:30:59;;;;;;;3.88;2.40;;;;;;;6.78;100.00;95855.84;5044511;28;20049;-76
2022/09/20 03:33:49;;;;;;;2.53;1.73;;;;;;;6.79;100.00;95854.78;5040274;28;20045;-76
2022/09/20 03:36:37;;;;;;;6.72;3.00;;;;;;;6.83;100.00;95842.81;5040561;28;20044;-76
2022/09/20 03:39:20;;;;;;;5.18;2.10;;;;;;;6.80;100.00;95858.22;5045186;28;20032;-75
2022/09/20 03:42:06;;;;;;;3.55;2.20;;;;;;;6.84;100.00;95854.06;5039335;28;20033;-75
2022/09/20 03:45:18;;;;;;;5.47;2.20;;;;;;;6.83;100.00;95849.88;5045602;28;20040;-75
2022/09/20 03:48:25;;;;;;;8.43;2.33;;;;;;;6.81;100.00;95849.31;5048627;28;20044;-75
2022/09/20 03:50:51;;;;;;;3.88;2.15;;;;;;;6.85;100.00;95846.00;5025352;28;20053;-76
2022/09/20 03:53:57;;;;;;;6.40;2.20;;;;;;;6.89;100.00;95856.78;5048901;28;20384;-75
2022/09/20 03:56:47;;;;;;;11.70;2.17;;;;;;;6.80;100.00;95852.97;5043586;28;20133;-75
2022/09/20 03:59:35;;;;;;;6.35;2.67;;;;;;;6.99;100.00;95861.41;5036172;28;20424;-76
2022/09/20 04:02:19;;;;;;;11.43;2.45;;;;;;;7.05;100.00;95856.00;5050319;28;20075;-75
2022/09/20 04:04:56;;;;;;;6.35;2.38;;;;;;;7.09;100.00;95857.09;5045998;28;20053;-75
2022/09/20 04:07:29;;;;;;;4.13;2.42;;;;;;;7.02;100.00;95851.22;5034399;28;20496;-76
2022/09/20 04:10:19;;;;;;;5.47;2.60;;;;;;;7.07;100.00;95853.16;5042647;28;20041;-75
2022/09/20 04:13:12;;;;;;;7.20;2.20;;;;;;;7.08;100.00;95855.53;5039394;28;20053;-75
2022/09/20 04:16:07;;;;;;;5.38;2.17;;;;;;;7.04;100.00;95859.66;5045047;28;20029;-75
2022/09/20 04:18:44;;;;;;;5.15;2.22;;;;;;;7.03;100.00;95871.13;5043730;28;20048;-75
2022/09/20 04:21:22;;;;;;;4.75;2.13;;;;;;;7.05;100.00;95871.72;5044471;28;20041;-75
2022/09/20 04:23:59;;;;;;;6.13;2.75;;;;;;;6.98;100.00;95865.81;5048175;28;20044;-76
2022/09/20 04:26:31;;;;;;;5.00;2.08;;;;;;;7.06;100.00;95875.91;5052548;28;20041;-75
2022/09/20 04:29:25;;;;;;;5.85;2.33;;;;;;;6.99;100.00;95872.63;5046548;28;20045;-76
2022/09/20 04:32:23;;;;;;;5.05;2.17;;;;;;;7.03;100.00;95872.97;5036399;28;20046;-76
2022/09/20 04:37:46;;;;;;;7.22;2.10;;;;;;;6.94;100.00;95872.56;5040198;28;20050;-75
2022/09/20 04:40:20;;;;;;;5.55;2.80;;;;;;;7.03;100.00;95873.75;5042131;28;20041;-75
2022/09/20 04:43:04;;;;;;;;;;;;;;;7.00;100.00;95879.47;5039421;28;20037;-76
2022/09/20 04:46:07;;;;;;;5.50;2.20;;;;;;;6.93;100.00;95868.38;5041744;28;19982;-75
2022/09/20 04:49:06;;;;;;;4.07;2.10;;;;;;;6.90;100.00;95872.25;5044548;28;20037;-76
2022/09/20 04:51:59;;;;;;;5.30;2.28;;;;;;;6.89;100.00;95878.50;5043016;28;20041;-75
2022/09/20 04:54:27;;;;;;;8.80;2.40;;;;;;;6.86;100.00;95888.66;5040850;28;20053;-76
2022/09/20 04:57:39;;;;;;;6.80;2.63;;;;;;;6.90;100.00;95879.31;5047144;28;20455;-76
2022/09/20 05:00:25;;;;;;;7.68;2.30;;;;;;;6.74;100.00;95886.09;5033128;28;20290;-76
2022/09/20 05:03:25;;;;;;;7.38;2.42;;;;;;;6.74;100.00;95876.44;5047956;28;20116;-76
2022/09/20 05:06:01;;;;;;;8.38;2.60;;;;;;;6.76;100.00;95884.03;5042404;28;20613;-76
2022/09/20 05:08:50;;;;;;;6.00;2.53;;;;;;;6.79;100.00;95883.56;5049762;28;20044;-76
2022/09/20 05:11:42;;;;;;;6.70;2.65;;;;;;;6.70;100.00;95885.75;5044362;28;20045;-75
2022/09/20 05:14:28;;;;;;;6.25;2.20;;;;;;;6.79;100.00;95882.78;5040511;28;20112;-75
2022/09/20 05:17:24;;;;;;;10.63;2.70;;;;;;;6.71;100.00;95892.59;5043395;28;20115;-75
2022/09/20 05:20:04;;;;;;;;;;;;;;;6.72;100.00;95888.97;5039010;28;20059;-75
2022/09/20 05:22:59;;;;;;;4.45;2.30;;;;;;;6.71;100.00;95892.59;5039735;28;19929;-76
2022/09/20 05:26:02;;;;;;;4.32;2.40;;;;;;;6.68;100.00;95897.47;5031538;28;20072;-76
2022/09/20 05:28:54;;;;;;;4.30;2.53;;;;;;;6.59;100.00;95894.47;5046064;28;20495;-76
2022/09/20 05:31:41;;;;;;;5.53;2.20;;;;;;;6.68;100.00;95898.31;5039759;28;20519;-75
2022/09/20 05:34:42;;;;;;;5.65;2.42;;;;;;;6.72;100.00;95899.41;5042343;28;20392;-74
2022/09/20 05:37:26;;;;;;;6.53;2.38;;;;;;;6.68;100.00;95898.31;5044161;28;20060;-76
2022/09/20 05:40:01;;;;;;;6.45;2.70;;;;;;;6.72;100.00;95899.41;5041244;28;20037;-75
2022/09/20 05:42:31;;;;;;;;;;;;;;;6.80;100.00;95897.44;5046901;28;20088;-75
2022/09/20 05:45:25;;;;;;;6.97;2.47;;;;;;;6.83;100.00;95904.81;5049390;28;20012;-75
2022/09/20 05:48:12;;;;;;;9.40;2.70;;;;;;;6.85;100.00;95903.56;5043769;28;20038;-75
2022/09/20 05:50:50;;;;;;;10.05;3.20;;;;;;;6.82;100.00;95904.00;5036332;28;20076;-75
2022/09/20 05:53:47;;;;;;;8.20;2.80;;;;;;;6.88;100.00;95912.75;5033262;28;20065;-75
2022/09/20 05:56:40;;;;;;;6.93;2.38;;;;;;;6.92;100.00;95908.63;5038419;28;20045;-75
2022/09/20 05:59:44;;;;;;;6.93;2.65;;;;;;;6.92;100.00;95912.06;5036639;28;20037;-74
2022/09/20 06:02:31;;;;;;;4.30;2.60;;;;;;;6.94;100.00;95914.44;5018791;28;20069;-75
2022/09/20 06:05:28;;;;;;;8.45;2.72;;;;;;;6.98;100.00;95917.38;5041638;28;20508;-75
2022/09/20 06:07:53;;;;;;;6.15;2.40;;;;;;;6.99;100.00;95924.97;5030610;28;20110;-74
2022/09/20 06:10:38;;;;;;;9.63;2.88;;;;;;;7.00;100.00;95918.72;5046388;28;20487;-74
2022/09/20 06:13:19;;;;;;;;;;;;;;;6.99;100.00;95932.03;5049013;28;20048;-73
2022/09/20 06:15:56;;;;;;;6.22;2.10;;;;;;;7.02;100.00;95934.19;5057055;28;20048;-74
2022/09/20 06:18:28;;;;;;;8.07;2.70;;;;;;;7.06;100.00;95935.31;5057413;28;20049;-74
2022/09/20 06:21:31;;;;;;;7.47;2.60;;;;;;;7.09;100.00;95929.59;5067512;28;20025;-74
2022/09/20 06:23:59;;;;;;;5.55;2.50;;;;;;;7.07;100.00;95924.59;5072837;28;20025;-76
2022/09/20 06:26:32;;;;;;;5.95;3.03;;;;;;;7.17;100.00;95925.78;5059120;28;20067;-72
2022/09/20 06:29:10;;;;;;;7.03;2.92;;;;;;;7.17;100.00;95928.41;5065108;28;20025;-74
2022/09/20 06:31:36;;;;;;;8.23;2.70;;;;;;;7.26;100.00;95927.00;5069870;28;20037;-74
2022/09/20 06:34:06;;;;;;;7.10;2.60;;;;;;;7.28;100.00;95928.34;5070589;28;20033;-73
2022/09/20 06:42:21;;;;;;;7.95;2.90;;;;;;;7.55;100.00;95937.38;5039382;28;20042;-75
2022/09/20 06:44:46;;;;;;;9.27;2.35;;;;;;;7.52;100.00;95932.63;5046323;28;20411;-75
2022/09/20 06:47:13;;;;;;;6.68;2.67;;;;;;;7.55;100.00;95935.53;5030528;28;20045;-74
2022/09/20 06:49:45;;;;;;;6.80;2.60;;;;;;;7.43;100.00;95930.41;5031414;28;20052;-74
2022/09/20 06:52:16;;;;;;;6.53;2.55;;;;;;;7.45;100.00;95944.03;5035839;28;20046;-74
2022/09/20 06:54:47;;;;;;;5.47;2.90;;;;;;;7.56;100.00;95945.00;5049463;28;20055;-75
2022/09/20 06:57:21;;;;;;;7.80;2.92;;;;;;;7.76;100.00;95939.28;5043892;28;20038;-77
2022/09/20 06:59:47;;;;;;;4.88;2.13;;;;;;;7.87;100.00;95949.88;5036216;28;20511;-75
2022/09/20 07:02:12;;;;;;;9.50;2.70;;;;;;;7.85;100.00;95946.72;5047191;28;20048;-76
2022/09/20 07:04:38;;;;;;;8.13;2.83;;;;;;;7.82;100.00;95950.63;5047819;28;20044;-74
2022/09/20 07:07:06;;;;;;;7.28;2.60;;;;;;;7.84;100.00;95942.50;5047174;28;20051;-75
2022/09/20 07:09:31;;;;;;;6.72;3.00;;;;;;;7.86;100.00;95940.44;5045533;28;20041;-74
2022/09/20 07:11:59;;;;;;;11.25;2.40;;;;;;;7.89;100.00;95947.84;5045451;28;20406;-79
2022/09/20 07:14:26;;;;;;;12.13;2.85;;;;;;;8.02;100.00;95944.09;5044754;28;20053;-75
2022/09/20 07:16:52;;;;;;;9.63;2.92;;;;;;;7.98;100.00;95943.75;5036475;28;20039;-76
2022/09/20 07:19:18;;;;;;;8.05;2.65;;;;;;;8.02;100.00;95942.25;5032474;28;20037;-75
2022/09/20 07:21:43;;;;;;;9.82;2.92;;;;;;;8.03;100.00;95938.59;5034566;28;20071;-75
2022/09/20 07:24:09;;;;;;;9.63;3.20;;;;;;;8.26;100.00;95948.06;5042882;28;20042;-75
2022/09/20 07:26:37;;;;;;;6.47;2.78;;;;;;;8.14;100.00;95950.78;5030582;28;20051;-74
2022/09/20 07:29:03;;;;;;;5.68;2.92;;;;;;;8.15;100.00;95948.97;5029241;28;20066;-75
2022/09/20 07:31:29;;;;;;;13.10;3.28;;;;;;;8.09;100.00;95953.34;5042646;28;20041;-74
2022/09/20 07:33:55;;;;;;;9.05;3.10;;;;;;;8.25;100.00;95950.94;5030550;28;20483;-75
2022/09/20 07:36:20;;;;;;;4.43;2.22;;;;;;;8.23;100.00;95950.34;5036015;28;20080;-75
2022/09/20 07:38:50;;;;;;;14.07;3.00;;;;;;;8.25;100.00;95951.72;5028694;28;20037;-75
2022/09/20 07:41:21;;;;;;;13.60;3.75;;;;;;;8.11;100.00;95960.97;5040473;28;20037;-74
2022/09/20 07:43:47;;;;;;;9.20;3.00;;;;;;;8.23;100.00;95958.22;5044601;28;20061;-75
2022/09/20 07:46:12;;;;;;;9.15;2.95;;;;;;;8.27;100.00;95948.84;5039255;28;20037;-75
2022/09/20 07:48:39;;;;;;;8.23;3.05;;;;;;;8.15;100.00;95957.59;5030163;28;20048;-78
2022/09/20 07:51:10;;;;;;;12.77;3.25;;;;;;;8.23;100.00;95969.53;5034907;28;20041;-75
2022/09/20 07:53:36;;;;;;;10.88;3.10;;;;;;;8.25;100.00;95961.41;5043707;28;20045;-75
2022/09/20 07:56:02;;;;;;;9.82;3.20;;;;;;;8.10;100.00;95969.84;5046464;28;20049;-76
2022/09/20 07:58:28;;;;;;;9.75;3.20;;;;;;;8.11;100.00;95972.22;5035958;28;20037;-77
2022/09/20 08:00:56;;;;;;;9.40;3.30;;;;;;;8.07;100.00;95976.38;5034455;28;20460;-78
2022/09/20 08:03:22;;;;;;;17.33;3.75;;;;;;;8.23;100.00;95981.81;5037251;28;20041;-76
2022/09/20 08:05:49;;;;;;;9.55;3.67;;;;;;;8.27;100.00;95980.31;5049114;28;20548;-78
2022/09/20 08:08:17;;;;;;;10.82;3.50;;;;;;;8.33;100.00;95968.84;5045266;28;20041;-79
2022/09/20 08:10:44;;;;;;;10.60;3.50;;;;;;;8.21;100.00;95973.41;5047253;28;20110;-77
2022/09/20 08:13:12;;;;;;;11.63;3.80;;;;;;;8.31;100.00;95970.94;5048944;28;20538;-78
2022/09/20 08:15:38;;;;;;;7.18;3.80;;;;;;;8.30;100.00;95974.56;5046077;28;20171;-74
2022/09/20 08:18:07;;;;;;;7.32;3.03;;;;;;;8.29;100.00;95973.00;5043905;28;20041;-75
2022/09/20 08:20:37;;;;;;;10.98;3.90;;;;;;;8.33;100.00;95974.09;5043054;28;20041;-76
2022/09/20 08:23:03;;;;;;;7.40;3.53;;;;;;;8.28;100.00;95979.28;5044093;28;20410;-76
2022/09/20 08:25:29;;;;;;;7.80;3.80;;;;;;;8.32;100.00;95975.13;5043875;28;20047;-76
2022/09/20 08:27:54;;;;;;;8.60;4.00;;;;;;;8.43;100.00;95984.72;5040428;28;20227;-75
2022/09/20 08:30:20;;;;;;;13.63;3.90;;;;;;;8.39;100.00;95983.63;5039869;28;20041;-76
2022/09/20 08:32:46;;;;;;;11.45;4.00;;;;;;;8.20;100.00;95992.78;5043004;28;20101;-76
2022/09/20 08:35:13;;;;;;;7.28;3.38;;;;;;;8.41;100.00;95976.28;5044119;28;20125;-76
2022/09/20 08:37:40;;;;;;;11.70;4.72;;;;;;;8.51;100.00;95980.91;5039258;28;20124;-77
2022/09/20 08:40:06;;;;;;;15.25;4.70;;;;;;;8.58;100.00;95985.97;5045290;28;20494;-76
2022/09/20 08:42:35;;;;;;;12.65;4.35;;;;;;;8.68;100.00;95980.84;5039147;28;20033;-75
2022/09/20 08:45:06;;;;;;;15.18;5.32;;;;;;;8.74;100.00;95979.84;5042538;28;20037;-76
2022/09/20 08:47:42;;;;;;;12.98;5.38;;;;;;;8.93;100.00;95988.19;5048060;28;20438;-75
2022/09/20 08:50:13;;;;;;;13.90;4.70;;;;;;;8.78;100.00;95983.56;5031203;28;20072;-74
2022/09/20 08:52:40;;;;;;;10.50;4.20;;;;;;;8.77;100.00;95979.34;5046606;28;20049;-76
2022/09/20 08:55:22;;;;;;;9.38;4.93;;;;;;;8.99;100.00;95981.16;5045217;28;20045;-74
2022/09/20 08:57:50;;;;;;;11.43;4.78;;;;;;;8.86;100.00;95986.81;5036634;28;20041;-76
2022/09/20 09:00:19;;;;;;;12.70;4.70;;;;;;;8.82;100.00;95981.25;5047389;28;20414;-76
2022/09/20 09:02:45;;;;;;;9.75;5.05;;;;;;;8.93;100.00;95982.94;5050115;28;20120;-77
2022/09/20 09:05:31;;;;;;;12.75;4.68;;;;;;;9.22;100.00;95989.78;5045043;28;20037;-76
2022/09/20 09:08:16;;;;;;;12.55;4.88;;;;;;;9.18;100.00;95990.28;5045597;28;20069;-76
2022/09/20 09:10:44;;;;;;;12.57;4.85;;;;;;;9.36;100.00;95985.72;5042268;28;20552;-75
2022/09/20 09:13:21;;;;;;;12.88;5.45;;;;;;;9.60;100.00;95990.66;5036051;28;20037;-76
2022/09/20 09:15:53;;;;;;;13.20;5.28;;;;;;;9.52;100.00;95979.56;5046678;28;20047;-78
2022/09/20 09:18:18;;;;;;;22.30;5.97;;;;;;;9.67;100.00;95980.72;5045157;28;20070;-76
2022/09/20 09:20:46;;;;;;;11.00;4.90;;;;;;;9.53;100.00;95981.13;5045489;28;20044;-75
2022/09/20 09:23:25;;;;;;;10.05;4.65;;;;;;;9.65;100.00;95985.41;5033521;28;20041;-78
2022/09/20 09:25:53;;;;;;;11.65;5.20;;;;;;;9.61;100.00;95977.25;5042788;28;20557;-77
2022/09/20 09:28:24;;;;;;;13.18;5.05;;;;;;;9.69;100.00;95984.66;5048612;28;20053;-76
2022/09/20 09:30:49;;;;;;;12.63;4.60;;;;;;;9.63;100.00;95984.88;5048384;28;20045;-76
2022/09/20 09:33:28;;;;;;;9.07;4.28;;;;;;;9.60;100.00;95980.13;5043214;28;20041;-76
2022/09/20 09:36:03;;;;;;;11.95;4.88;;;;;;;9.61;100.00;95976.44;5041616;28;20143;-76
2022/09/20 09:38:31;;;;;;;8.20;3.35;;;;;;;9.33;100.00;95970.47;5035080;28;20041;-78
2022/09/20 09:41:03;;;;;;;10.98;4.32;;;;;;;9.13;100.00;95971.84;5048068;28;20491;-75
2022/09/20 09:43:34;;;;;;;16.05;4.80;;;;;;;9.42;100.00;95968.94;5034658;28;20055;-76
2022/09/20 09:46:20;;;;;;;13.23;5.30;;;;;;;10.18;100.00;95967.88;5038561;28;20037;-75
2022/09/20 09:48:48;;;;;;;11.95;4.82;;;;;;;10.44;100.00;95967.25;5041715;28;20540;-76
2022/09/20 09:51:24;;;;;;;9.20;3.92;;;;;;;10.69;100.00;95964.72;5047782;28;20037;-76
2022/09/20 09:53:50;;;;;;;7.95;3.72;;;;;;;10.50;100.00;95961.75;5039886;28;20056;-76
2022/09/20 09:56:34;;;;;;;12.40;4.10;;;;;;;10.49;100.00;95965.44;5045903;28;20473;-75
2022/09/20 09:59:18;;;;;;;12.13;4.13;;;;;;;10.42;100.00;95959.63;5049815;28;20537;-76
2022/09/20 10:01:55;;;;;;;10.05;3.58;;;;;;;10.51;100.00;95968.59;5039562;28;20049;-75
2022/09/20 10:04:59;;;;;;;11.75;4.00;;;;;;;10.26;100.00;95961.38;5040672;28;20053;-75
2022/09/20 10:07:48;;;;;;;8.20;3.47;;;;;;;9.95;100.00;95960.41;5042034;28;20044;-75
2022/09/20 10:10:22;;;;;;;8.65;3.63;;;;;;;9.98;100.00;95967.78;5042617;28;20052;-76
2022/09/20 10:12:57;;;;;;;9.73;3.25;;;;;;;10.01;100.00;95969.88;5049593;28;20091;-75
2022/09/20 10:15:34;;;;;;;9.13;3.38;;;;;;;10.02;100.00;95956.50;5049766;28;20568;-76
2022/09/20 10:18:48;;;;;;;7.55;3.53;;;;;;;9.99;100.00;95961.47;5054031;28;20041;-76
2022/09/20 10:21:47;;;;;;;6.22;3.17;;;;;;;9.94;100.00;95964.06;5033011;28;20543;-75
2022/09/20 10:24:51;;;;;;;5.43;2.83;;;;;;;10.06;100.00;95956.78;5042926;28;20033;-76
2022/09/20 10:27:41;;;;;;;11.88;2.78;;;;;;;10.54;100.00;95952.31;5037769;28;20489;-76
2022/09/20 10:30:22;;;;;;;8.13;2.78;;;;;;;10.65;100.00;95955.75;5042287;28;20041;-75
2022/09/20 10:33:01;;;;;;;5.38;2.65;;;;;;;10.42;100.00;95957.00;5042559;28;20600;-76
2022/09/20 10:35:58;;;;;;;5.35;2.53;;;;;;;11.02;100.00;95956.63;5045017;28;20056;-76
2022/09/20 10:38:36;;;;;;;6.55;2.75;;;;;;;10.92;100.00;95963.47;5040394;28;20090;-76
2022/09/20 10:44:17;;;;;;;5.88;2.58;;;;;;;10.94;100.00;95965.06;5039090;28;20041;-76
2022/09/20 10:47:13;;;;;;;6.80;2.30;;;;;;;10.79;100.00;95958.69;5043962;28;20093;-76
2022/09/20 10:49:51;;;;;;;9.38;3.47;;;;;;;10.98;100.00;95966.91;5040332;28;20495;-75
2022/09/20 10:52:40;;;;;;;10.02;2.83;;;;;;;12.20;100.00;95958.47;5043367;28;20043;-75
2022/09/20 10:55:33;;;;;;;7.97;2.40;;;;;;;12.61;100.00;95963.59;5044280;28;20047;-76
2022/09/20 10:58:36;;;;;;;8.85;2.22;;;;;;;12.09;100.00;95973.53;5046655;28;20048;-74
2022/09/20 11:01:17;;;;;;;8.02;2.15;;;;;;;11.59;100.00;95960.91;5028496;28;20522;-75
2022/09/20 11:04:19;;;;;;;5.93;2.20;;;;;;;10.84;100.00;95966.59;5040742;28;20041;-76
2022/09/20 11:07:01;;;;;;;6.85;2.20;;;;;;;11.21;100.00;95973.53;5049062;28;20534;-75
2022/09/20 11:09:34;;;;;;;8.15;1.98;;;;;;;11.61;100.00;95969.34;5044085;28;20573;-76
2022/09/20 11:12:15;;;;;;;7.45;1.92;;;;;;;11.72;100.00;95958.78;5048560;28;20762;-75
2022/09/20 11:14:48;;;;;;;4.85;1.92;;;;;;;11.85;100.00;95958.25;5043332;28;20040;-76
2022/09/20 11:17:14;;;;;;;3.80;1.87;;;;;;;11.94;99.09;95967.22;5048050;28;20037;-75
2022/09/20 11:19:46;;;;;;;4.72;2.80;;;;;;;12.04;100.00;95968.25;5045571;28;20089;-75
2022/09/20 11:22:20;;;;;;;8.13;2.50;;;;;;;12.65;97.98;95970.69;5044743;28;20037;-76
2022/09/20 11:25:03;;;;;;;6.18;2.40;;;;;;;13.71;91.81;95979.34;5037955;28;20052;-76
2022/09/20 11:27:37;;;;;;;8.40;2.67;;;;;;;13.67;90.88;95979.09;5037764;28;20044;-74
2022/09/20 11:30:16;;;;;;;8.63;2.70;;;;;;;13.67;96.42;95983.59;5045795;28;20051;-78
2022/09/20 11:32:58;;;;;;;7.40;2.47;;;;;;;13.27;89.47;95973.00;5048477;28;20045;-79
2022/09/20 11:35:27;;;;;;;8.27;2.83;;;;;;;13.11;99.60;95972.31;5042832;28;20040;-75
2022/09/20 11:38:09;;;;;;;5.00;2.58;;;;;;;12.78;87.89;95976.47;5039466;28;20107;-76
2022/09/20 11:40:45;;;;;;;9.05;2.63;;;;;;;13.02;87.56;95975.81;5054379;28;20049;-76
2022/09/20 11:43:14;;;;;;;10.35;2.90;;;;;;;13.04;97.84;95971.06;5037096;28;20491;-76
2022/09/20 11:45:43;;;;;;;12.73;3.78;;;;;;;13.79;98.40;95970.81;5046369;28;20052;-75
2022/09/20 11:48:16;;;;;;;9.88;2.60;;;;;;;13.80;100.00;95961.00;5040743;28;20072;-75
2022/09/20 11:51:15;;;;;;;7.82;2.92;;;;;;;13.62;93.47;95957.19;5041979;28;20617;-75
2022/09/20 11:54:19;;;;;;;11.75;3.25;;;;;;;13.60;96.47;95962.75;5041168;28;20045;-75
2022/09/20 11:56:55;;;;;;;12.93;3.47;;;;;;;13.27;92.77;95959.78;5037129;28;20056;-76
2022/09/20 11:59:33;;;;;;;10.20;2.67;;;;;;;13.13;95.76;95966.75;5046614;28;20048;-76
2022/09/20 12:02:01;;;;;;;9.50;2.67;;;;;;;12.44;97.35;95963.91;5041575;28;20045;-77
2022/09/20 12:04:33;;;;;;;8.23;2.72;;;;;;;12.53;95.20;95962.31;5040998;28;20525;-75
2022/09/20 12:07:05;;;;;;;7.55;3.10;;;;;;;13.09;97.26;95957.81;5046972;28;20116;-76
2022/09/20 12:09:35;;;;;;;10.45;2.85;;;;;;;13.17;86.41;95954.56;5035960;28;20510;-75
2022/09/20 12:12:19;;;;;;;6.63;2.65;;;;;;;12.91;88.99;95952.09;5046511;28;20041;-74
2022/09/20 12:14:56;;;;;;;12.95;2.80;;;;;;;13.30;95.75;95953.97;5042986;28;20441;-73
2022/09/20 12:17:43;;;;;;;8.07;2.78;;;;;;;13.45;87.49;95942.50;5046567;28;20127;-73
2022/09/20 12:20:33;;;;;;;9.45;2.47;;;;;;;13.33;86.03;95948.13;5038288;28;20049;-74
2022/09/20 12:23:39;;;;;;;6.85;2.70;;;;;;;13.42;82.67;95939.63;5040530;28;20132;-74
2022/09/20 12:26:21;;;;;;;6.03;2.58;;;;;;;13.60;85.47;95940.81;5046510;28;20041;-74
2022/09/20 12:28:55;;;;;;;6.60;2.40;;;;;;;13.56;91.02;95930.00;5039331;28;20041;-74
2022/09/20 12:31:33;;;;;;;6.30;2.40;;;;;;;13.07;82.58;95944.06;5042700;28;20040;-73
2022/09/20 12:34:10;;;;;;;16.17;2.78;;;;;;;13.27;87.08;95932.56;5049075;28;20060;-73
2022/09/20 12:36:37;;;;;;;9.73;2.58;;;;;;;13.11;85.29;95939.81;5043694;28;20049;-73